createdAt,value
2022-08-11T00:00:21.645Z,19.05
2022-08-11T00:01:21.667Z,18.94
2022-08-11T00:02:21.730Z,18.92
2022-08-11T00:03:21.718Z,18.98
2022-08-11T00:04:21.733Z,18.98
2022-08-11T00:05:21.752Z,18.97
2022-08-11T00:06:21.776Z,18.91
2022-08-11T00:07:21.795Z,18.94
2022-08-11T00:08:21.818Z,18.88
2022-08-11T00:09:21.844Z,18.88
2022-08-11T00:10:21.865Z,18.92
2022-08-11T00:11:21.888Z,18.91
2022-08-11T00:12:21.905Z,18.96
2022-08-11T00:13:21.926Z,18.91
2022-08-11T00:14:21.949Z,18.85
2022-08-11T00:15:21.970Z,18.81
2022-08-11T00:16:21.992Z,18.81
2022-08-11T00:17:22.014Z,18.82
2022-08-11T00:18:22.035Z,18.85
2022-08-11T00:20:14.842Z,18.83
2022-08-11T00:20:22.079Z,18.86
2022-08-11T00:21:35.518Z,18.81
2022-08-11T00:22:22.122Z,18.76
2022-08-11T00:23:22.143Z,18.71
2022-08-11T00:24:22.168Z,18.78
2022-08-11T00:25:22.189Z,18.82
2022-08-11T00:26:22.207Z,18.81
2022-08-11T00:27:22.231Z,18.81
2022-08-11T00:28:22.251Z,18.81
2022-08-11T00:29:22.273Z,18.66
2022-08-11T00:30:22.295Z,18.81
2022-08-11T00:31:22.317Z,18.73
2022-08-11T00:32:22.338Z,18.61
2022-08-11T00:33:22.359Z,18.67
2022-08-11T00:34:22.383Z,18.73
2022-08-11T00:35:51.586Z,18.64
2022-08-11T00:36:25.444Z,18.76
2022-08-11T00:37:22.446Z,18.63
2022-08-11T00:38:22.471Z,18.67
2022-08-11T00:39:28.430Z,18.68
2022-08-11T00:40:22.510Z,18.68
2022-08-11T00:41:22.533Z,18.66
2022-08-11T00:42:22.556Z,18.63
2022-08-11T00:43:22.572Z,18.61
2022-08-11T00:44:22.598Z,18.63
2022-08-11T00:45:22.619Z,18.58
2022-08-11T00:46:22.637Z,18.53
2022-08-11T00:47:22.660Z,18.60
2022-08-11T00:48:22.682Z,18.46
2022-08-11T00:49:22.703Z,18.45
2022-08-11T00:50:22.726Z,18.48
2022-08-11T00:51:22.747Z,18.51
2022-08-11T00:52:22.769Z,18.45
2022-08-11T00:53:22.790Z,18.53
2022-08-11T00:54:22.812Z,18.52
2022-08-11T00:55:22.832Z,18.49
2022-08-11T00:56:22.856Z,18.49
2022-08-11T00:57:37.079Z,18.49
2022-08-11T00:58:22.897Z,18.46
2022-08-11T00:59:35.149Z,18.46
2022-08-11T01:00:22.946Z,18.39
2022-08-11T01:01:23.005Z,18.42
2022-08-11T01:02:22.983Z,18.42
2022-08-11T01:03:23.004Z,18.39
2022-08-11T01:04:23.023Z,18.34
2022-08-11T01:05:23.046Z,18.39
2022-08-11T01:06:23.069Z,18.34
2022-08-11T01:08:01.787Z,18.33
2022-08-11T01:08:23.111Z,18.27
2022-08-11T01:09:23.141Z,18.24
2022-08-11T01:10:23.154Z,18.30
2022-08-11T01:11:23.174Z,18.27
2022-08-11T01:12:23.198Z,18.19
2022-08-11T01:13:23.218Z,18.18
2022-08-11T01:14:33.931Z,18.24
2022-08-11T01:15:23.261Z,18.30
2022-08-11T01:16:23.284Z,18.24
2022-08-11T01:17:23.302Z,18.27
2022-08-11T01:18:23.324Z,18.34
2022-08-11T01:19:23.346Z,18.15
2022-08-11T01:20:44.725Z,18.26
2022-08-11T01:21:23.390Z,18.18
2022-08-11T01:22:23.424Z,18.18
2022-08-11T01:23:23.430Z,18.18
2022-08-11T01:24:23.454Z,18.15
2022-08-11T01:25:23.473Z,18.12
2022-08-11T01:26:23.494Z,18.15
2022-08-11T01:27:23.515Z,18.16
2022-08-11T01:28:23.537Z,18.15
2022-08-11T01:29:23.564Z,18.15
2022-08-11T01:30:23.584Z,18.15
2022-08-11T01:31:23.807Z,18.15
2022-08-11T01:32:23.631Z,18.05
2022-08-11T01:33:23.648Z,18.02
2022-08-11T01:34:23.666Z,18.11
2022-08-11T01:35:23.685Z,18.00
2022-08-11T01:36:23.708Z,18.05
2022-08-11T01:37:23.727Z,17.97
2022-08-11T01:38:23.749Z,18.03
2022-08-11T01:39:23.787Z,17.94
2022-08-11T01:40:23.790Z,17.98
2022-08-11T01:41:23.811Z,17.97
2022-08-11T01:42:23.835Z,17.97
2022-08-11T01:43:23.855Z,17.95
2022-08-11T01:44:23.877Z,17.90
2022-08-11T01:45:24.030Z,17.90
2022-08-11T01:46:23.920Z,17.87
2022-08-11T01:47:23.940Z,17.90
2022-08-11T01:48:23.962Z,17.91
2022-08-11T01:49:28.975Z,17.91
2022-08-11T01:50:24.003Z,17.87
2022-08-11T01:51:24.024Z,17.86
2022-08-11T01:52:33.613Z,17.86
2022-08-11T01:53:24.074Z,17.86
2022-08-11T01:54:24.088Z,17.82
2022-08-11T01:55:24.174Z,17.80
2022-08-11T01:56:24.127Z,17.79
2022-08-11T01:57:24.156Z,17.79
2022-08-11T01:58:29.350Z,17.79
2022-08-11T01:59:24.192Z,17.76
2022-08-11T02:00:24.218Z,17.78
2022-08-11T02:01:24.350Z,17.75
2022-08-11T02:02:24.258Z,17.66
2022-08-11T02:03:24.277Z,17.72
2022-08-11T02:04:24.300Z,17.73
2022-08-11T02:05:24.323Z,17.73
2022-08-11T02:06:24.340Z,17.65
2022-08-11T02:07:24.361Z,17.65
2022-08-11T02:08:33.203Z,17.66
2022-08-11T02:09:24.403Z,17.60
2022-08-11T02:10:26.892Z,17.68
2022-08-11T02:11:24.445Z,17.68
2022-08-11T02:12:24.467Z,17.53
2022-08-11T02:13:30.979Z,17.57
2022-08-11T02:14:24.512Z,17.65
2022-08-11T02:15:24.530Z,17.60
2022-08-11T02:16:25.153Z,17.57
2022-08-11T02:17:24.572Z,17.53
2022-08-11T02:18:24.593Z,17.63
2022-08-11T02:19:24.612Z,17.56
2022-08-11T02:20:24.637Z,17.63
2022-08-11T02:21:24.656Z,17.59
2022-08-11T02:22:24.677Z,17.53
2022-08-11T02:24:06.991Z,17.50
2022-08-11T02:24:24.720Z,17.52
2022-08-11T02:25:24.740Z,17.50
2022-08-11T02:26:24.764Z,17.65
2022-08-11T02:27:24.781Z,17.56
2022-08-11T02:28:24.802Z,17.54
2022-08-11T02:29:24.830Z,17.52
2022-08-11T02:30:24.845Z,17.44
2022-08-11T02:32:25.283Z,17.50
2022-08-11T02:32:30.704Z,17.41
2022-08-11T02:33:24.947Z,17.41
2022-08-11T02:34:24.931Z,17.42
2022-08-11T02:35:24.950Z,17.41
2022-08-11T02:36:24.974Z,17.44
2022-08-11T02:37:24.994Z,17.42
2022-08-11T02:38:25.011Z,17.38
2022-08-11T02:39:25.062Z,17.38
2022-08-11T02:40:25.055Z,17.34
2022-08-11T02:41:25.078Z,17.37
2022-08-11T02:42:35.470Z,17.37
2022-08-11T02:43:25.118Z,17.28
2022-08-11T02:44:25.136Z,17.28
2022-08-11T02:45:25.159Z,17.35
2022-08-11T02:46:25.181Z,17.35
2022-08-11T02:47:25.200Z,17.32
2022-08-11T02:48:25.222Z,17.23
2022-08-11T02:49:25.241Z,17.23
2022-08-11T02:50:25.264Z,17.31
2022-08-11T02:51:25.284Z,17.27
2022-08-11T02:52:25.303Z,17.31
2022-08-11T02:53:25.325Z,17.22
2022-08-11T02:54:25.349Z,17.17
2022-08-11T02:55:46.001Z,17.19
2022-08-11T02:56:25.390Z,17.22
2022-08-11T02:57:25.410Z,17.17
2022-08-11T02:58:26.927Z,17.14
2022-08-11T02:59:25.450Z,17.16
2022-08-11T03:00:25.480Z,17.12
2022-08-11T03:01:25.616Z,17.12
2022-08-11T03:02:25.526Z,17.12
2022-08-11T03:03:25.532Z,17.09
2022-08-11T03:04:25.553Z,17.13
2022-08-11T03:05:25.591Z,17.09
2022-08-11T03:06:25.598Z,17.10
2022-08-11T03:07:28.795Z,17.10
2022-08-11T03:08:25.636Z,17.09
2022-08-11T03:09:25.657Z,17.09
2022-08-11T03:10:25.677Z,17.12
2022-08-11T03:11:25.697Z,17.12
2022-08-11T03:12:25.717Z,16.99
2022-08-11T03:13:25.740Z,17.02
2022-08-11T03:14:25.763Z,17.05
2022-08-11T03:15:25.783Z,17.02
2022-08-11T03:16:25.853Z,16.98
2022-08-11T03:17:25.822Z,17.01
2022-08-11T03:18:25.845Z,17.04
2022-08-11T03:19:25.865Z,16.97
2022-08-11T03:20:25.884Z,16.94
2022-08-11T03:21:58.470Z,16.95
2022-08-11T03:22:25.926Z,16.94
2022-08-11T03:23:25.946Z,16.89
2022-08-11T03:24:25.968Z,16.91
2022-08-11T03:25:25.986Z,16.83
2022-08-11T03:26:26.009Z,16.86
2022-08-11T03:27:26.028Z,16.82
2022-08-11T03:28:26.059Z,16.86
2022-08-11T03:29:26.070Z,16.82
2022-08-11T03:30:26.091Z,16.79
2022-08-11T03:31:26.112Z,16.66
2022-08-11T03:32:26.131Z,16.79
2022-08-11T03:33:26.152Z,16.76
2022-08-11T03:34:26.171Z,16.74
2022-08-11T03:35:26.192Z,16.72
2022-08-11T03:36:26.214Z,16.72
2022-08-11T03:37:26.235Z,16.72
2022-08-11T03:38:30.643Z,16.65
2022-08-11T03:39:26.306Z,16.76
2022-08-11T03:40:26.294Z,16.62
2022-08-11T03:42:02.139Z,16.65
2022-08-11T03:42:26.337Z,16.66
2022-08-11T03:43:26.359Z,16.66
2022-08-11T03:44:26.377Z,16.65
2022-08-11T03:45:26.399Z,16.59
2022-08-11T03:46:26.418Z,16.59
2022-08-11T03:47:26.441Z,16.64
2022-08-11T03:48:26.459Z,16.59
2022-08-11T03:49:26.481Z,16.59
2022-08-11T03:50:26.512Z,16.55
2022-08-11T03:51:26.520Z,16.54
2022-08-11T03:52:26.544Z,16.54
2022-08-11T03:53:26.562Z,16.50
2022-08-11T03:54:26.603Z,16.54
2022-08-11T03:55:26.604Z,16.51
2022-08-11T03:56:26.622Z,16.50
2022-08-11T03:57:26.643Z,16.41
2022-08-11T03:58:26.665Z,16.51
2022-08-11T03:59:26.683Z,16.49
2022-08-11T04:00:26.706Z,16.40
2022-08-11T04:01:26.792Z,16.43
2022-08-11T04:02:26.815Z,16.44
2022-08-11T04:03:30.984Z,16.44
2022-08-11T04:04:26.788Z,16.47
2022-08-11T04:05:26.806Z,16.46
2022-08-11T04:06:26.828Z,16.46
2022-08-11T04:07:26.848Z,16.40
2022-08-11T04:08:26.867Z,16.41
2022-08-11T04:09:26.889Z,16.43
2022-08-11T04:10:26.907Z,16.40
2022-08-11T04:11:26.930Z,16.32
2022-08-11T04:12:36.694Z,16.41
2022-08-11T04:13:27.007Z,16.32
2022-08-11T04:14:26.991Z,16.37
2022-08-11T04:15:27.009Z,16.47
2022-08-11T04:16:27.583Z,16.34
2022-08-11T04:17:27.059Z,16.34
2022-08-11T04:18:27.073Z,16.36
2022-08-11T04:19:27.098Z,16.37
2022-08-11T04:20:27.112Z,16.34
2022-08-11T04:21:27.134Z,16.39
2022-08-11T04:22:27.154Z,16.37
2022-08-11T04:24:36.860Z,16.39
2022-08-11T04:24:37.853Z,16.36
2022-08-11T04:25:27.213Z,16.34
2022-08-11T04:26:27.235Z,16.39
2022-08-11T04:27:37.040Z,16.31
2022-08-11T04:28:29.147Z,16.41
2022-08-11T04:29:35.995Z,16.37
2022-08-11T04:30:27.317Z,16.47
2022-08-11T04:31:51.739Z,16.39
2022-08-11T04:32:27.357Z,16.34
2022-08-11T04:33:27.377Z,16.40
2022-08-11T04:34:27.398Z,16.39
2022-08-11T04:35:27.418Z,16.34
2022-08-11T04:36:27.442Z,16.40
2022-08-11T04:37:27.463Z,16.43
2022-08-11T04:38:27.481Z,16.49
2022-08-11T04:39:27.602Z,16.40
2022-08-11T04:40:27.528Z,16.44
2022-08-11T04:41:27.541Z,16.44
2022-08-11T04:42:31.505Z,16.51
2022-08-11T04:43:27.581Z,16.44
2022-08-11T04:44:27.603Z,16.49
2022-08-11T04:45:27.623Z,16.49
2022-08-11T04:46:27.645Z,16.43
2022-08-11T04:47:27.662Z,16.40
2022-08-11T04:48:27.688Z,16.46
2022-08-11T04:49:33.839Z,16.51
2022-08-11T04:50:27.724Z,16.44
2022-08-11T04:51:27.753Z,16.47
2022-08-11T04:52:36.078Z,16.46
2022-08-11T04:53:27.788Z,16.51
2022-08-11T04:54:28.836Z,16.55
2022-08-11T04:55:27.827Z,16.51
2022-08-11T04:56:27.851Z,16.47
2022-08-11T04:57:27.869Z,16.54
2022-08-11T04:58:30.103Z,16.51
2022-08-11T04:59:27.919Z,16.50
2022-08-11T05:00:27.938Z,16.51
2022-08-11T05:01:28.006Z,16.57
2022-08-11T05:02:28.073Z,16.57
2022-08-11T05:03:27.992Z,16.57
2022-08-11T05:04:28.012Z,16.61
2022-08-11T05:05:28.034Z,16.59
2022-08-11T05:06:28.060Z,16.66
2022-08-11T05:07:28.080Z,16.72
2022-08-11T05:08:28.093Z,16.69
2022-08-11T05:09:28.115Z,16.69
2022-08-11T05:10:28.139Z,16.74
2022-08-11T05:11:28.158Z,16.80
2022-08-11T05:12:28.198Z,16.80
2022-08-11T05:13:28.201Z,16.72
2022-08-11T05:14:28.220Z,16.76
2022-08-11T05:15:28.240Z,16.80
2022-08-11T05:16:29.214Z,16.87
2022-08-11T05:17:28.282Z,16.87
2022-08-11T05:18:28.304Z,16.87
2022-08-11T05:19:28.322Z,16.84
2022-08-11T05:20:28.341Z,16.91
2022-08-11T05:21:28.365Z,16.97
2022-08-11T05:22:28.448Z,16.97
2022-08-11T05:23:28.406Z,16.98
2022-08-11T05:24:28.426Z,17.02
2022-08-11T05:26:44.735Z,17.02
2022-08-11T05:26:47.077Z,17.05
2022-08-11T05:27:28.492Z,17.02
2022-08-11T05:28:28.509Z,17.01
2022-08-11T05:29:28.531Z,17.09
2022-08-11T05:30:28.555Z,17.10
2022-08-11T05:31:28.572Z,17.13
2022-08-11T05:32:28.629Z,17.14
2022-08-11T05:33:28.615Z,17.19
2022-08-11T05:34:28.635Z,17.30
2022-08-11T05:36:00.734Z,17.30
2022-08-11T05:36:28.677Z,17.28
2022-08-11T05:37:28.697Z,17.27
2022-08-11T05:38:28.721Z,17.34
2022-08-11T05:39:33.574Z,17.38
2022-08-11T05:40:28.762Z,17.44
2022-08-11T05:41:28.783Z,17.49
2022-08-11T05:42:30.136Z,17.42
2022-08-11T05:43:28.824Z,17.47
2022-08-11T05:44:28.856Z,17.57
2022-08-11T05:45:28.870Z,17.56
2022-08-11T05:46:28.888Z,17.50
2022-08-11T05:47:28.910Z,17.63
2022-08-11T05:48:28.930Z,17.52
2022-08-11T05:49:28.948Z,17.66
2022-08-11T05:50:32.732Z,17.63
2022-08-11T05:51:30.362Z,17.75
2022-08-11T05:52:31.828Z,17.73
2022-08-11T05:53:29.036Z,17.75
2022-08-11T05:54:29.725Z,17.79
2022-08-11T05:55:29.077Z,17.82
2022-08-11T05:56:29.100Z,17.90
2022-08-11T05:57:48.476Z,17.93
2022-08-11T05:58:29.143Z,17.91
2022-08-11T05:59:29.162Z,17.97
2022-08-11T06:00:29.185Z,18.02
2022-08-11T06:01:29.250Z,18.06
2022-08-11T06:02:29.281Z,18.11
2022-08-11T06:03:29.251Z,18.15
2022-08-11T06:04:29.272Z,18.18
2022-08-11T06:05:29.293Z,18.27
2022-08-11T06:06:29.368Z,18.31
2022-08-11T06:07:29.333Z,18.31
2022-08-11T06:08:29.360Z,18.34
2022-08-11T06:09:29.384Z,18.37
2022-08-11T06:10:29.406Z,18.37
2022-08-11T06:11:43.978Z,18.43
2022-08-11T06:12:29.450Z,18.52
2022-08-11T06:13:29.468Z,18.57
2022-08-11T06:14:29.486Z,18.67
2022-08-11T06:15:29.506Z,18.67
2022-08-11T06:16:30.032Z,18.70
2022-08-11T06:17:38.408Z,18.78
2022-08-11T06:18:29.575Z,18.79
2022-08-11T06:19:29.594Z,18.81
2022-08-11T06:20:29.617Z,18.92
2022-08-11T06:21:29.643Z,18.96
2022-08-11T06:22:29.672Z,18.98
2022-08-11T06:23:29.683Z,19.11
2022-08-11T06:24:29.705Z,19.12
2022-08-11T06:25:29.728Z,19.09
2022-08-11T06:26:29.752Z,19.19
2022-08-11T06:27:29.772Z,19.27
2022-08-11T06:28:29.793Z,19.32
2022-08-11T06:29:38.127Z,19.34
2022-08-11T06:30:29.838Z,19.39
2022-08-11T06:31:29.859Z,19.59
2022-08-11T06:32:29.884Z,19.79
2022-08-11T06:33:29.905Z,19.93
2022-08-11T06:34:29.928Z,20.15
2022-08-11T06:35:29.947Z,20.42
2022-08-11T06:36:29.971Z,20.66
2022-08-11T06:37:34.386Z,21.08
2022-08-11T06:38:30.021Z,21.17
2022-08-11T06:39:30.086Z,21.32
2022-08-11T06:40:30.069Z,21.65
2022-08-11T06:41:30.090Z,22.03
2022-08-11T06:42:30.114Z,22.16
2022-08-11T06:43:30.139Z,22.37
2022-08-11T06:44:30.161Z,22.55
2022-08-11T06:45:30.188Z,22.86
2022-08-11T06:46:30.213Z,23.02
2022-08-11T06:47:30.237Z,23.32
2022-08-11T06:48:30.261Z,23.59
2022-08-11T06:49:30.288Z,23.77
2022-08-11T06:50:30.313Z,24.06
2022-08-11T06:51:32.430Z,24.19
2022-08-11T06:52:45.122Z,24.50
2022-08-11T06:53:30.387Z,24.61
2022-08-11T06:54:30.414Z,24.82
2022-08-11T06:55:55.847Z,25.01
2022-08-11T06:56:30.466Z,25.16
2022-08-11T06:57:31.195Z,25.39
2022-08-11T06:58:30.519Z,25.58
2022-08-11T06:59:30.543Z,25.80
2022-08-11T07:00:30.583Z,25.93
2022-08-11T07:01:30.645Z,26.07
2022-08-11T07:02:31.431Z,26.23
2022-08-11T07:03:30.651Z,26.41
2022-08-11T07:04:30.679Z,26.53
2022-08-11T07:05:30.705Z,26.61
2022-08-11T07:06:35.989Z,26.78
2022-08-11T07:07:30.759Z,27.04
2022-08-11T07:08:34.734Z,27.16
2022-08-11T07:09:30.819Z,27.35
2022-08-11T07:10:30.842Z,27.55
2022-08-11T07:11:30.870Z,27.68
2022-08-11T07:12:30.898Z,27.78
2022-08-11T07:13:44.245Z,27.90
2022-08-11T07:14:35.022Z,28.09
2022-08-11T07:16:11.243Z,28.23
2022-08-11T07:16:31.112Z,28.34
2022-08-11T07:17:31.039Z,28.50
2022-08-11T07:18:31.069Z,28.55
2022-08-11T07:19:31.096Z,28.65
2022-08-11T07:20:31.124Z,28.78
2022-08-11T07:22:01.393Z,28.78
2022-08-11T07:22:31.240Z,28.96
2022-08-11T07:23:31.209Z,29.03
2022-08-11T07:24:58.837Z,29.05
2022-08-11T07:25:31.267Z,29.05
2022-08-11T07:26:31.301Z,29.03
2022-08-11T07:27:35.047Z,29.09
2022-08-11T07:28:31.360Z,29.20
2022-08-11T07:29:31.385Z,29.28
2022-08-11T07:30:31.422Z,29.47
2022-08-11T07:31:31.446Z,29.55
2022-08-11T07:32:31.472Z,29.67
2022-08-11T07:34:08.409Z,29.77
2022-08-11T07:34:31.537Z,29.74
2022-08-11T07:35:31.557Z,29.89
2022-08-11T07:36:31.589Z,29.95
2022-08-11T07:37:31.618Z,30.02
2022-08-11T07:38:31.650Z,30.02
2022-08-11T07:39:31.767Z,30.08
2022-08-11T07:40:31.705Z,30.17
2022-08-11T07:41:31.736Z,30.16
2022-08-11T07:42:31.765Z,30.33
2022-08-11T07:43:31.795Z,30.43
2022-08-11T07:44:35.107Z,30.48
2022-08-11T07:45:31.854Z,30.40
2022-08-11T07:46:31.885Z,30.52
2022-08-11T07:47:31.916Z,30.59
2022-08-11T07:48:31.945Z,30.74
2022-08-11T07:49:31.975Z,30.77
2022-08-11T07:50:32.014Z,30.89
2022-08-11T07:51:32.038Z,30.89
2022-08-11T07:52:32.072Z,30.99
2022-08-11T07:53:32.100Z,31.11
2022-08-11T07:54:33.378Z,31.11
2022-08-11T07:55:50.857Z,31.15
2022-08-11T07:56:32.195Z,31.13
2022-08-11T07:57:54.064Z,31.23
2022-08-11T07:58:35.480Z,31.22
2022-08-11T08:00:00.936Z,31.32
2022-08-11T08:00:32.317Z,31.45
2022-08-11T08:01:32.383Z,31.41
2022-08-11T08:02:32.402Z,31.47
2022-08-11T08:03:32.417Z,31.39
2022-08-11T08:04:32.441Z,31.45
2022-08-11T08:05:32.467Z,31.52
2022-08-11T08:06:35.995Z,31.54
2022-08-11T08:07:32.531Z,31.64
2022-08-11T08:08:32.567Z,31.74
2022-08-11T08:09:32.598Z,31.67
2022-08-11T08:10:32.630Z,31.79
2022-08-11T08:11:32.657Z,31.67
2022-08-11T08:12:32.731Z,31.70
2022-08-11T08:13:32.724Z,31.69
2022-08-11T08:14:32.756Z,31.78
2022-08-11T08:15:32.787Z,31.85
2022-08-11T08:16:33.372Z,31.93
2022-08-11T08:17:32.852Z,31.95
2022-08-11T08:18:32.883Z,31.92
2022-08-11T08:19:32.924Z,31.86
2022-08-11T08:20:32.950Z,31.54
2022-08-11T08:21:32.979Z,31.48
2022-08-11T08:22:38.487Z,31.39
2022-08-11T08:23:33.748Z,31.33
2022-08-11T08:24:33.073Z,31.10
2022-08-11T08:25:33.105Z,31.07
2022-08-11T08:26:33.136Z,30.91
2022-08-11T08:27:33.165Z,30.76
2022-08-11T08:28:33.198Z,30.70
2022-08-11T08:29:33.226Z,30.54
2022-08-11T08:30:33.262Z,30.54
2022-08-11T08:31:33.290Z,30.38
2022-08-11T08:32:33.347Z,30.32
2022-08-11T08:33:33.358Z,30.05
2022-08-11T08:34:33.920Z,30.05
2022-08-11T08:35:33.405Z,29.90
2022-08-11T08:36:33.439Z,29.79
2022-08-11T08:37:45.506Z,29.76
2022-08-11T08:38:33.491Z,29.68
2022-08-11T08:39:33.626Z,29.55
2022-08-11T08:40:33.550Z,29.44
2022-08-11T08:41:33.581Z,29.35
2022-08-11T08:42:33.691Z,29.25
2022-08-11T08:43:47.600Z,29.07
2022-08-11T08:44:39.138Z,29.03
2022-08-11T08:45:33.689Z,28.96
2022-08-11T08:46:33.722Z,28.90
2022-08-11T08:47:42.189Z,28.86
2022-08-11T08:48:33.777Z,28.80
2022-08-11T08:49:33.802Z,28.74
2022-08-11T08:50:33.832Z,28.72
2022-08-11T08:51:58.611Z,28.59
2022-08-11T08:52:37.273Z,28.55
2022-08-11T08:53:33.917Z,28.47
2022-08-11T08:54:33.968Z,28.53
2022-08-11T08:55:33.976Z,28.50
2022-08-11T08:56:33.999Z,28.40
2022-08-11T08:57:39.046Z,28.35
2022-08-11T08:58:34.056Z,28.34
2022-08-11T08:59:47.891Z,28.31
2022-08-11T09:00:34.105Z,28.33
2022-08-11T09:01:34.221Z,28.22
2022-08-11T09:02:35.114Z,28.27
2022-08-11T09:04:02.905Z,28.20
2022-08-11T09:04:34.216Z,28.20
2022-08-11T09:05:34.251Z,28.15
2022-08-11T09:06:34.269Z,28.22
2022-08-11T09:07:38.845Z,28.22
2022-08-11T09:08:34.322Z,28.18
2022-08-11T09:09:34.349Z,28.19
2022-08-11T09:10:34.377Z,28.16
2022-08-11T09:11:34.405Z,28.06
2022-08-11T09:12:36.547Z,28.03
2022-08-11T09:13:34.469Z,28.00
2022-08-11T09:14:34.486Z,28.04
2022-08-11T09:15:34.511Z,28.03
2022-08-11T09:16:35.088Z,28.08
2022-08-11T09:17:34.564Z,28.00
2022-08-11T09:18:34.592Z,28.09
2022-08-11T09:19:34.619Z,28.00
2022-08-11T09:20:34.644Z,28.06
2022-08-11T09:21:44.557Z,28.06
2022-08-11T09:22:34.701Z,28.03
2022-08-11T09:24:34.754Z,28.06
2022-08-11T09:25:34.778Z,28.19
2022-08-11T09:26:34.808Z,28.22
2022-08-11T09:27:34.835Z,28.16
2022-08-11T09:28:34.879Z,28.20
2022-08-11T09:29:34.895Z,28.23
2022-08-11T09:30:34.929Z,28.19
2022-08-11T09:31:39.600Z,28.23
2022-08-11T09:32:34.969Z,28.20
2022-08-11T09:33:34.996Z,28.28
2022-08-11T09:34:35.022Z,28.30
2022-08-11T09:35:35.048Z,28.35
2022-08-11T09:36:35.077Z,28.43
2022-08-11T09:37:54.501Z,28.38
2022-08-11T09:38:35.128Z,28.41
2022-08-11T09:39:35.192Z,28.35
2022-08-11T09:40:35.183Z,28.40
2022-08-11T09:42:01.814Z,28.41
2022-08-11T09:42:35.235Z,28.49
2022-08-11T09:43:35.275Z,28.49
2022-08-11T09:44:35.287Z,28.45
2022-08-11T09:45:39.930Z,28.56
2022-08-11T09:46:35.343Z,28.57
2022-08-11T09:47:35.370Z,28.56
2022-08-11T09:48:35.397Z,28.57
2022-08-11T09:49:35.425Z,28.46
2022-08-11T09:50:35.451Z,28.49
2022-08-11T09:51:35.481Z,28.67
2022-08-11T09:52:35.504Z,28.68
2022-08-11T09:53:40.740Z,28.78
2022-08-11T09:54:35.559Z,28.82
2022-08-11T09:55:35.585Z,28.80
2022-08-11T09:56:35.612Z,28.83
2022-08-11T09:57:35.641Z,28.82
2022-08-11T09:58:42.469Z,28.89
2022-08-11T09:59:35.695Z,28.90
2022-08-11T10:00:35.727Z,28.93
2022-08-11T10:01:35.801Z,28.96
2022-08-11T10:02:35.778Z,29.07
2022-08-11T10:03:40.167Z,29.03
2022-08-11T10:04:35.834Z,29.21
2022-08-11T10:05:35.862Z,29.28
2022-08-11T10:06:35.891Z,29.32
2022-08-11T10:07:35.918Z,29.49
2022-08-11T10:08:35.948Z,29.47
2022-08-11T10:09:35.973Z,29.62
2022-08-11T10:10:36.005Z,29.69
2022-08-11T10:11:36.034Z,29.86
2022-08-11T10:12:36.065Z,29.89
2022-08-11T10:14:32.080Z,30.01
2022-08-11T10:14:36.501Z,30.21
2022-08-11T10:15:36.157Z,30.33
2022-08-11T10:16:36.234Z,30.36
2022-08-11T10:17:36.215Z,30.56
2022-08-11T10:18:36.247Z,30.69
2022-08-11T10:19:36.277Z,30.85
2022-08-11T10:20:36.305Z,31.02
2022-08-11T10:21:36.338Z,31.17
2022-08-11T10:22:36.370Z,31.20
2022-08-11T10:23:36.402Z,31.14
2022-08-11T10:24:36.435Z,31.32
2022-08-11T10:25:36.464Z,31.45
2022-08-11T10:26:36.497Z,31.57
2022-08-11T10:28:17.080Z,31.81
2022-08-11T10:28:50.123Z,32.01
2022-08-11T10:29:37.535Z,32.34
2022-08-11T10:30:36.629Z,32.45
2022-08-11T10:31:51.076Z,32.67
2022-08-11T10:32:36.696Z,33.01
2022-08-11T10:33:41.781Z,33.26
2022-08-11T10:34:36.764Z,33.35
2022-08-11T10:35:36.799Z,33.65
2022-08-11T10:36:36.834Z,33.81
2022-08-11T10:38:08.492Z,34.22
2022-08-11T10:38:36.907Z,34.32
2022-08-11T10:39:36.952Z,34.59
2022-08-11T10:40:36.975Z,34.79
2022-08-11T10:41:37.011Z,35.07
2022-08-11T10:42:57.321Z,35.31
2022-08-11T10:44:02.814Z,35.42
2022-08-11T10:44:37.121Z,35.41
2022-08-11T10:45:37.160Z,35.45
2022-08-11T10:46:37.203Z,35.72
2022-08-11T10:47:37.282Z,35.93
2022-08-11T10:48:37.288Z,36.17
2022-08-11T10:49:37.332Z,36.33
2022-08-11T10:50:37.349Z,36.48
2022-08-11T10:51:51.106Z,36.66
2022-08-11T10:52:37.533Z,36.75
2022-08-11T10:53:37.460Z,36.94
2022-08-11T10:54:37.497Z,37.14
2022-08-11T10:55:37.534Z,37.21
2022-08-11T10:56:37.573Z,37.33
2022-08-11T10:57:37.629Z,37.47
2022-08-11T10:58:37.651Z,37.45
2022-08-11T10:59:37.688Z,37.63
2022-08-11T11:00:37.727Z,37.56
2022-08-11T11:01:37.817Z,37.80
2022-08-11T11:02:37.805Z,38.10
2022-08-11T11:03:37.843Z,38.09
2022-08-11T11:04:37.884Z,38.22
2022-08-11T11:05:37.929Z,38.17
2022-08-11T11:06:37.961Z,38.31
2022-08-11T11:07:41.432Z,38.42
2022-08-11T11:08:38.054Z,38.48
2022-08-11T11:09:38.079Z,38.54
2022-08-11T11:10:38.119Z,38.73
2022-08-11T11:11:38.160Z,38.85
2022-08-11T11:12:38.388Z,39.00
2022-08-11T11:13:38.237Z,39.11
2022-08-11T11:14:46.114Z,39.37
2022-08-11T11:15:38.313Z,39.54
2022-08-11T11:16:38.355Z,39.75
2022-08-11T11:17:38.393Z,39.73
2022-08-11T11:18:38.433Z,39.93
2022-08-11T11:19:38.471Z,39.95
2022-08-11T11:20:40.763Z,39.91
2022-08-11T11:21:38.558Z,40.05
2022-08-11T11:22:38.700Z,40.13
2022-08-11T11:23:38.630Z,40.42
2022-08-11T11:24:38.670Z,40.58
2022-08-11T11:25:38.710Z,40.66
2022-08-11T11:26:38.751Z,40.88
2022-08-11T11:27:46.357Z,40.96
2022-08-11T11:28:38.831Z,40.95
2022-08-11T11:29:38.870Z,40.96
2022-08-11T11:30:38.914Z,40.96
2022-08-11T11:31:38.949Z,40.90
2022-08-11T11:32:39.120Z,41.07
2022-08-11T11:34:06.161Z,41.11
2022-08-11T11:34:47.874Z,41.15
2022-08-11T11:35:39.109Z,41.18
2022-08-11T11:36:39.149Z,41.12
2022-08-11T11:37:39.208Z,41.20
2022-08-11T11:38:39.232Z,41.30
2022-08-11T11:39:39.337Z,41.34
2022-08-11T11:40:39.309Z,41.39
2022-08-11T11:41:39.350Z,41.42
2022-08-11T11:42:39.523Z,41.57
2022-08-11T11:43:39.430Z,41.49
2022-08-11T11:44:39.470Z,41.61
2022-08-11T11:45:39.510Z,41.84
2022-08-11T11:46:39.552Z,41.73
2022-08-11T11:47:39.590Z,41.58
2022-08-11T11:48:39.631Z,41.51
2022-08-11T11:49:39.673Z,41.67
2022-08-11T11:50:39.716Z,41.78
2022-08-11T11:51:39.751Z,41.68
2022-08-11T11:52:39.940Z,41.65
2022-08-11T11:53:39.832Z,41.76
2022-08-11T11:54:39.872Z,41.65
2022-08-11T11:55:39.913Z,41.81
2022-08-11T11:56:39.955Z,41.93
2022-08-11T11:57:40.183Z,42.02
2022-08-11T11:58:40.035Z,42.09
2022-08-11T11:59:40.079Z,42.28
2022-08-11T12:00:43.306Z,42.43
2022-08-11T12:01:40.155Z,42.49
2022-08-11T12:02:40.196Z,42.68
2022-08-11T12:03:40.307Z,42.80
2022-08-11T12:04:40.278Z,42.86
2022-08-11T12:05:40.318Z,43.00
2022-08-11T12:06:40.362Z,43.11
2022-08-11T12:07:40.519Z,43.07
2022-08-11T12:08:40.442Z,43.03
2022-08-11T12:09:40.482Z,43.11
2022-08-11T12:10:40.521Z,43.11
2022-08-11T12:11:40.563Z,43.07
2022-08-11T12:12:40.604Z,43.08
2022-08-11T12:13:40.648Z,42.84
2022-08-11T12:14:40.709Z,42.87
2022-08-11T12:16:31.969Z,42.66
2022-08-11T12:16:41.322Z,42.66
2022-08-11T12:17:40.916Z,42.43
2022-08-11T12:18:40.849Z,42.37
2022-08-11T12:19:40.887Z,42.24
2022-08-11T12:20:40.931Z,42.20
2022-08-11T12:21:40.971Z,42.12
2022-08-11T12:22:41.012Z,42.06
2022-08-11T12:23:41.055Z,42.14
2022-08-11T12:24:41.124Z,41.96
2022-08-11T12:25:41.138Z,41.90
2022-08-11T12:26:41.176Z,41.74
2022-08-11T12:27:41.329Z,41.52
2022-08-11T12:28:41.254Z,41.39
2022-08-11T12:29:43.971Z,41.11
2022-08-11T12:31:41.375Z,40.71
2022-08-11T12:32:41.639Z,40.57
2022-08-11T12:33:41.454Z,40.46
2022-08-11T12:34:41.491Z,40.24
2022-08-11T12:35:41.529Z,40.16
2022-08-11T12:36:41.568Z,40.23
2022-08-11T12:37:41.692Z,40.20
2022-08-11T12:38:41.645Z,40.23
2022-08-11T12:40:16.552Z,40.35
2022-08-11T12:41:13.849Z,40.44
2022-08-11T12:41:41.843Z,40.29
2022-08-11T12:42:41.798Z,40.26
2022-08-11T12:43:41.836Z,40.35
2022-08-11T12:44:41.875Z,40.49
2022-08-11T12:45:41.916Z,40.44
2022-08-11T12:46:41.954Z,40.52
2022-08-11T12:47:41.989Z,40.39
2022-08-11T12:48:58.638Z,40.31
2022-08-11T12:49:45.337Z,40.28
2022-08-11T12:50:42.107Z,40.26
2022-08-11T12:52:00.774Z,40.16
2022-08-11T12:52:42.183Z,40.07
2022-08-11T12:53:42.226Z,40.05
2022-08-11T12:54:42.259Z,40.22